sensor_id;sensor_type;location;lat;lon;timestamp;pressure;altitude;pressure_sealevel;temperature;humidity
4528;BME280;62320;51.520;6.818;2022-10-28T00:05:44;101386.91;;;19.20;83.86
4528;BME280;62320;51.520;6.818;2022-10-28T00:15:45;101379.81;;;19.26;82.85
4528;BME280;62320;51.520;6.818;2022-10-28T00:25:46;101374.47;;;19.29;82.21
4528;BME280;62320;51.520;6.818;2022-10-28T00:35:48;101367.34;;;19.34;81.73
4528;BME280;62320;51.520;6.818;2022-10-28T00:45:49;101377.88;;;19.32;81.42
4528;BME280;62320;51.520;6.818;2022-10-28T00:55:51;101364.88;;;19.28;81.20
4528;BME280;62320;51.520;6.818;2022-10-28T01:05:53;101362.44;;;19.21;81.45
4528;BME280;62320;51.520;6.818;2022-10-28T01:15:57;101355.41;;;19.22;81.21
4528;BME280;62320;51.520;6.818;2022-10-28T01:36:16;101359.72;;;19.24;80.45
4528;BME280;62320;51.520;6.818;2022-10-28T01:46:50;101352.94;;;19.16;79.99
4528;BME280;62320;51.520;6.818;2022-10-28T01:56:57;101345.13;;;19.14;80.71
4528;BME280;62320;51.520;6.818;2022-10-28T02:07:01;101348.84;;;19.06;80.51
4528;BME280;62320;51.520;6.818;2022-10-28T02:27:17;101330.00;;;18.90;81.40
4528;BME280;62320;51.520;6.818;2022-10-28T02:37:32;101330.94;;;18.89;80.37
4528;BME280;62320;51.520;6.818;2022-10-28T02:47:38;101326.75;;;18.82;81.47
4528;BME280;62320;51.520;6.818;2022-10-28T02:57:43;101325.91;;;18.80;81.08
4528;BME280;62320;51.520;6.818;2022-10-28T03:07:45;101311.19;;;18.75;81.15
4528;BME280;62320;51.520;6.818;2022-10-28T03:17:46;101306.34;;;18.60;82.45
4528;BME280;62320;51.520;6.818;2022-10-28T03:27:47;101294.22;;;18.56;82.15
4528;BME280;62320;51.520;6.818;2022-10-28T03:37:49;101291.84;;;18.45;82.47
4528;BME280;62320;51.520;6.818;2022-10-28T03:47:50;101281.34;;;18.46;82.28
4528;BME280;62320;51.520;6.818;2022-10-28T03:57:52;101280.59;;;18.40;82.37
4528;BME280;62320;51.520;6.818;2022-10-28T04:07:54;101283.63;;;18.22;83.63
4528;BME280;62320;51.520;6.818;2022-10-28T04:17:56;101288.03;;;18.20;83.49
4528;BME280;62320;51.520;6.818;2022-10-28T04:27:57;101292.66;;;18.10;83.93
4528;BME280;62320;51.520;6.818;2022-10-28T04:37:59;101297.06;;;18.07;84.01
4528;BME280;62320;51.520;6.818;2022-10-28T04:48:00;101298.00;;;18.06;84.56
4528;BME280;62320;51.520;6.818;2022-10-28T04:58:02;101294.75;;;17.93;84.46
4528;BME280;62320;51.520;6.818;2022-10-28T05:08:03;101302.75;;;17.87;84.22
4528;BME280;62320;51.520;6.818;2022-10-28T05:18:05;101297.78;;;17.75;84.69
4528;BME280;62320;51.520;6.818;2022-10-28T05:28:06;101309.06;;;17.78;84.84
4528;BME280;62320;51.520;6.818;2022-10-28T05:38:08;101307.50;;;17.68;85.43
4528;BME280;62320;51.520;6.818;2022-10-28T05:48:09;101301.34;;;17.71;85.35
4528;BME280;62320;51.520;6.818;2022-10-28T05:58:10;101298.00;;;17.64;85.54
4528;BME280;62320;51.520;6.818;2022-10-28T06:08:12;101299.72;;;17.65;85.68
4528;BME280;62320;51.520;6.818;2022-10-28T06:18:13;101295.19;;;17.73;86.16
4528;BME280;62320;51.520;6.818;2022-10-28T06:28:20;101309.16;;;17.72;85.67
4528;BME280;62320;51.520;6.818;2022-10-28T06:38:26;101301.31;;;17.72;85.63
4528;BME280;62320;51.520;6.818;2022-10-28T06:48:28;101307.31;;;17.77;85.99
4528;BME280;62320;51.520;6.818;2022-10-28T06:58:29;101328.16;;;17.82;85.80
4528;BME280;62320;51.520;6.818;2022-10-28T07:08:31;101328.94;;;17.86;85.84
4528;BME280;62320;51.520;6.818;2022-10-28T07:18:32;101337.47;;;17.95;85.90
4528;BME280;62320;51.520;6.818;2022-10-28T07:28:34;101342.69;;;17.95;85.96
4528;BME280;62320;51.520;6.818;2022-10-28T07:38:35;101348.50;;;18.09;85.36
4528;BME280;62320;51.520;6.818;2022-10-28T07:48:37;101344.72;;;18.22;84.86
4528;BME280;62320;51.520;6.818;2022-10-28T07:58:40;101350.50;;;18.36;84.79
4528;BME280;62320;51.520;6.818;2022-10-28T08:08:42;101366.22;;;18.36;84.51
4528;BME280;62320;51.520;6.818;2022-10-28T08:18:44;101364.16;;;18.52;83.80
4528;BME280;62320;51.520;6.818;2022-10-28T08:28:46;101361.56;;;18.50;84.25
4528;BME280;62320;51.520;6.818;2022-10-28T08:38:47;101352.13;;;18.79;83.19
4528;BME280;62320;51.520;6.818;2022-10-28T08:48:48;101329.91;;;18.95;82.86
4528;BME280;62320;51.520;6.818;2022-10-28T08:58:50;101337.16;;;19.17;82.11
4528;BME280;62320;51.520;6.818;2022-10-28T09:08:54;101331.16;;;19.48;80.39
4528;BME280;62320;51.520;6.818;2022-10-28T09:19:02;101332.22;;;19.71;79.89
4528;BME280;62320;51.520;6.818;2022-10-28T09:39:24;101329.00;;;20.20;78.00
4528;BME280;62320;51.520;6.818;2022-10-28T09:49:33;101328.75;;;20.29;78.65
4528;BME280;62320;51.520;6.818;2022-10-28T09:59:36;101344.88;;;20.46;76.51
4528;BME280;62320;51.520;6.818;2022-10-28T10:09:37;101355.78;;;20.60;78.22
4528;BME280;62320;51.520;6.818;2022-10-28T10:30:00;101350.09;;;21.00;74.47
4528;BME280;62320;51.520;6.818;2022-10-28T10:40:06;101351.31;;;21.16;74.17
4528;BME280;62320;51.520;6.818;2022-10-28T10:50:31;101339.53;;;21.28;73.80
4528;BME280;62320;51.520;6.818;2022-10-28T11:00:37;101330.50;;;21.35;73.51
4528;BME280;62320;51.520;6.818;2022-10-28T11:11:02;101319.97;;;21.10;77.09
4528;BME280;62320;51.520;6.818;2022-10-28T11:31:32;101308.44;;;21.39;76.01
4528;BME280;62320;51.520;6.818;2022-10-28T12:13:18;101253.81;;;22.14;73.57
4528;BME280;62320;51.520;6.818;2022-10-28T12:23:24;101251.88;;;22.19;72.37
4528;BME280;62320;51.520;6.818;2022-10-28T12:33:32;101235.00;;;22.23;73.52
4528;BME280;62320;51.520;6.818;2022-10-28T12:43:42;101232.09;;;22.50;71.34
4528;BME280;62320;51.520;6.818;2022-10-28T12:54:03;101226.94;;;22.47;72.42
4528;BME280;62320;51.520;6.818;2022-10-28T13:04:10;101230.41;;;22.69;71.07
4528;BME280;62320;51.520;6.818;2022-10-28T13:34:56;101263.38;;;22.58;74.29
4528;BME280;62320;51.520;6.818;2022-10-28T13:45:01;101275.66;;;22.59;74.38
4528;BME280;62320;51.520;6.818;2022-10-28T14:15:44;101303.50;;;22.23;74.21
4528;BME280;62320;51.520;6.818;2022-10-28T14:35:51;101332.75;;;22.17;73.50
4528;BME280;62320;51.520;6.818;2022-10-28T14:46:13;101343.34;;;21.92;74.16
4528;BME280;62320;51.520;6.818;2022-10-28T14:56:21;101347.63;;;21.94;73.24
4528;BME280;62320;51.520;6.818;2022-10-28T15:06:40;101363.81;;;21.84;74.14
4528;BME280;62320;51.520;6.818;2022-10-28T15:16:47;101378.78;;;21.82;75.47
4528;BME280;62320;51.520;6.818;2022-10-28T15:26:53;101377.47;;;21.70;72.72
4528;BME280;62320;51.520;6.818;2022-10-28T15:36:56;101383.06;;;21.61;75.31
4528;BME280;62320;51.520;6.818;2022-10-28T15:47:03;101376.28;;;21.54;73.95
4528;BME280;62320;51.520;6.818;2022-10-28T15:57:20;101388.81;;;21.48;75.64
4528;BME280;62320;51.520;6.818;2022-10-28T16:07:22;101404.84;;;21.40;74.58
4528;BME280;62320;51.520;6.818;2022-10-28T16:17:28;101429.66;;;21.33;75.48
4528;BME280;62320;51.520;6.818;2022-10-28T16:27:31;101436.31;;;21.18;76.38
4528;BME280;62320;51.520;6.818;2022-10-28T16:37:33;101435.66;;;21.12;76.69
4528;BME280;62320;51.520;6.818;2022-10-28T16:47:34;101458.59;;;21.07;76.01
4528;BME280;62320;51.520;6.818;2022-10-28T16:57:35;101451.06;;;20.95;76.05
4528;BME280;62320;51.520;6.818;2022-10-28T17:07:37;101458.69;;;20.76;77.10
4528;BME280;62320;51.520;6.818;2022-10-28T17:17:38;101467.81;;;20.63;76.11
4528;BME280;62320;51.520;6.818;2022-10-28T17:27:39;101492.88;;;20.45;77.03
4528;BME280;62320;51.520;6.818;2022-10-28T17:37:42;101501.16;;;20.32;76.85
4528;BME280;62320;51.520;6.818;2022-10-28T17:47:43;101501.69;;;20.12;77.17
4528;BME280;62320;51.520;6.818;2022-10-28T17:57:45;101496.16;;;19.90;78.32
4528;BME280;62320;51.520;6.818;2022-10-28T18:07:46;101519.38;;;19.73;77.86
4528;BME280;62320;51.520;6.818;2022-10-28T18:17:48;101506.66;;;19.57;78.50
4528;BME280;62320;51.520;6.818;2022-10-28T18:27:50;101531.56;;;19.41;78.36
4528;BME280;62320;51.520;6.818;2022-10-28T18:37:51;101539.59;;;19.32;79.27
4528;BME280;62320;51.520;6.818;2022-10-28T18:47:53;101553.09;;;19.16;79.64
4528;BME280;62320;51.520;6.818;2022-10-28T18:57:55;101539.38;;;19.05;79.80
4528;BME280;62320;51.520;6.818;2022-10-28T19:07:57;101570.19;;;18.94;79.63
4528;BME280;62320;51.520;6.818;2022-10-28T19:17:58;101573.03;;;18.84;80.57
4528;BME280;62320;51.520;6.818;2022-10-28T19:28:00;101573.13;;;18.79;81.15
4528;BME280;62320;51.520;6.818;2022-10-28T19:38:01;101583.78;;;18.72;80.28
4528;BME280;62320;51.520;6.818;2022-10-28T19:48:03;101598.63;;;18.70;81.39
4528;BME280;62320;51.520;6.818;2022-10-28T19:58:04;101593.56;;;18.62;81.43
4528;BME280;62320;51.520;6.818;2022-10-28T20:08:06;101604.00;;;18.64;82.04
4528;BME280;62320;51.520;6.818;2022-10-28T20:18:07;101615.41;;;18.61;82.08
4528;BME280;62320;51.520;6.818;2022-10-28T20:28:08;101623.41;;;18.55;81.66
4528;BME280;62320;51.520;6.818;2022-10-28T20:38:10;101633.00;;;18.55;81.92
4528;BME280;62320;51.520;6.818;2022-10-28T20:48:11;101648.91;;;18.44;82.42
4528;BME280;62320;51.520;6.818;2022-10-28T20:58:13;101651.69;;;18.35;82.13
4528;BME280;62320;51.520;6.818;2022-10-28T21:08:14;101670.25;;;18.20;82.32
4528;BME280;62320;51.520;6.818;2022-10-28T21:18:15;101667.03;;;18.04;82.58
4528;BME280;62320;51.520;6.818;2022-10-28T21:28:17;101673.25;;;17.97;82.31
4528;BME280;62320;51.520;6.818;2022-10-28T21:38:18;101683.97;;;17.82;82.62
4528;BME280;62320;51.520;6.818;2022-10-28T21:48:19;101692.91;;;17.69;83.26
4528;BME280;62320;51.520;6.818;2022-10-28T21:58:21;101685.19;;;17.60;83.12
4528;BME280;62320;51.520;6.818;2022-10-28T22:08:22;101683.44;;;17.59;83.29
4528;BME280;62320;51.520;6.818;2022-10-28T22:18:24;101686.13;;;17.56;83.83
4528;BME280;62320;51.520;6.818;2022-10-28T22:28:26;101697.44;;;17.55;83.37
4528;BME280;62320;51.520;6.818;2022-10-28T22:38:28;101693.91;;;17.59;83.32
4528;BME280;62320;51.520;6.818;2022-10-28T22:48:30;101696.50;;;17.59;84.49
4528;BME280;62320;51.520;6.818;2022-10-28T22:58:32;101691.25;;;17.62;84.95
4528;BME280;62320;51.520;6.818;2022-10-28T23:08:33;101703.50;;;17.60;84.31
4528;BME280;62320;51.520;6.818;2022-10-28T23:18:35;101703.56;;;17.55;84.45
4528;BME280;62320;51.520;6.818;2022-10-28T23:28:36;101706.09;;;17.60;87.08
4528;BME280;62320;51.520;6.818;2022-10-28T23:38:38;101725.41;;;17.47;85.93
4528;BME280;62320;51.520;6.818;2022-10-28T23:48:39;101720.31;;;17.36;85.28
4528;BME280;62320;51.520;6.818;2022-10-28T23:58:41;101712.53;;;17.32;84.75
